Historyczne dane pomiarowe

Dodano dane terminowe – wersja testowa.

Dane z okresu 1951-2019

Wersja bazy: 1.34 [2019-03-16, lista zmian], aktualizacja planowana na 2019-04-15

Dane meteo z obszaru Polski uzyskane na podstawie danych udostępnionych przez Instytut Meteorologii i Gospodarki Wodnej – Państwowy Instytut Badawczy.

 

Wybierz Datę:    

       

TemperaturaWilgotnośćWiatrCiśnienieOpadyŚniegCzas trwania zjawisk
 Stacja t tx tn tng RH VA  wxwx mslp ppp RRR   cm mm wxwxwxwxwxwxwx
1987-01-17 -8.7 -6.0-10.1-12.0 85.0- 8.0 0.0---- 0.0-- 41---------
1987-01-18-11.3 -6.0-17.5-20.0 83.8- 8.0 0.0---- 0.0-- 41---------
1987-01-19-10.7 -4.0-13.1-16.0 82.0- 4.0 0.7---- 0.0-- 41---------
1987-01-20-14.6 -3.5-23.0-26.2 82.8- 0.3 0.0---- 0.0-- 41---------
1987-01-21-15.4 -7.0-24.0-28.5 72.3- 2.7 0.0---- 1.0-- 41---------
1987-01-22 -7.8 -6.0-12.1-12.5 85.8- 8.0 1.7---- 0.2-- 42---------
1987-01-23 -7.2 -4.5 -9.1 -9.0 87.5- 8.0 2.3---- 4.4-- 42---------
1987-01-24 -7.8 -5.5 -9.4 -9.5 89.3- 8.0 3.0---- 2.0-- 45---------
1987-01-25 -9.5 -7.0-13.5-18.0 87.0- 8.0 9.3---- 2.0-- 48---------
1987-01-26 -3.9 -2.1 -7.5 -8.0 90.5- 6.7 2.7---- 7.0-- 50---------
1987-01-27 -9.4 -4.0-18.0-22.0 83.5- 5.3 1.3---- 3.0-- 57---------
1987-01-28 -6.6 -4.0-19.0-27.0 79.8- 5.3 7.7---- 0.2-- 58---------
1987-01-29 -7.8 -5.0-10.5-12.0 85.3- 6.7 1.0---- 0.0-- 67---------
1987-01-30-18.3 -9.9-22.5-25.0 71.3- 4.3 1.3---- 0.0-- 58---------
1987-01-31-11.5 -5.5-25.0-30.0 66.0- 0.7 4.3---- 0.0-- 58---------
1987-02-01-10.6 -1.1-21.0-28.0 61.8- 6.7 0.7---- 0.0-- 58---------
1987-02-02 -9.5 2.9-15.5-21.0 64.3- 0.0 1.0---- 0.0-- 58---------
1987-02-03 -9.5 1.9-17.3-22.0 86.5- 2.7 0.7---- 0.0-- 55---------
1987-02-04 -5.7 2.9-14.5-19.0 77.8- 5.3 2.3---- 0.0-- 55---------
1987-02-05 -7.6 2.9-15.5-21.0 84.3- 0.0 1.3---- 0.0-- 55---------
1987-02-06 -5.7 1.9-17.0-21.5 83.8- 1.0 4.3---- 0.0-- 55---------
1987-02-07 -3.7 -1.6 -6.5-12.0 95.0- 8.0 5.7---- 1.0-- 54---------
1987-02-08 -3.0 -0.1 -5.1-10.0 82.5- 6.7 4.3---- 0.0-- 55---------
1987-02-09 -1.5 0.9 -4.0 -6.0 91.8- 8.0 2.3---- 0.1-- 55---------
1987-02-10 1.5 4.4 -0.5 -3.0 86.3- 8.0 4.3---- 0.0-- 55---------
1987-02-11 4.0 6.5 3.0 -0.5 78.8- 5.0 3.0---- 0.0-- 53---------
1987-02-12 6.0 8.5 3.9 -0.5 72.8- 1.7 3.0---- 0.0-- 45---------
1987-02-13 6.3 10.0 -0.5 -3.0 73.3- 5.7 3.3---- 0.0-- 43---------
1987-02-14 3.8 9.5 0.5 -1.0 86.0- 8.0 1.0---- 0.0-- 35---------
1987-02-15 4.0 14.5 -1.0 -3.0 79.3- 3.3 0.7---- 0.0-- 30---------
255.1 ms

 

Źródłem pochodzenia danych jest Instytut Meteorologii i Gospodarki Wodnej – Państwowy Instytut Badawczy. Dane Instytutu Meteorologii i Gospodarki Wodnej – Państwowego Instytutu Badawczego zostały przetworzone.

Dane źródłowe można odnaleźć na stronie https://dane.imgw.pl